Time;durP1;ratioP1;P1;durP2;ratioP2;P2;SDS_P1;SDS_P2;PMS_P1;PMS_P2;Temp;Humidity;BMP_temperature;BMP_pressure;BME280_temperature;BME280_humidity;BME280_pressure;Samples;Min_cycle;Max_cycle;Signal;HPM_P1;HPM_P2
2023/12/23 00:01:48;;;;;;;4.75;3.10;;;8.80;99.90;;;;;;4803449;29;20084;-93
2023/12/23 00:05:11;;;;;;;6.03;5.43;;;8.70;99.90;;;;;;4821120;29;20034;-95
2023/12/23 00:08:35;;;;;;;;;;;;;;;;;;;;;
2023/12/23 00:11:51;;;;;;;2.05;1.85;;;8.50;99.90;;;;;;4827354;29;20072;-95
2023/12/23 00:14:57;;;;;;;3.67;2.05;;;8.70;99.90;;;;;;4784506;29;20542;-94
2023/12/23 00:18:06;;;;;;;8.27;2.20;;;9.10;99.90;;;;;;4785778;30;20043;-92
2023/12/23 00:21:34;;;;;;;4.38;1.85;;;9.10;99.90;;;;;;4770827;30;20132;-93
2023/12/23 00:25:08;;;;;;;6.45;2.10;;;9.50;99.90;;;;;;4809309;29;20533;-93
2023/12/23 00:28:13;;;;;;;;;;;;;;;;;;;;;
2023/12/23 00:35:15;;;;;;;5.13;2.95;;;9.60;99.90;;;;;;4806907;29;20035;-95
2023/12/23 00:38:49;;;;;;;4.20;1.80;;;9.60;99.90;;;;;;4824960;29;20437;-94
2023/12/23 00:42:02;;;;;;;3.58;2.83;;;9.70;99.90;;;;;;4773946;29;20028;-93
2023/12/23 00:44:52;;;;;;;3.55;1.58;;;9.80;99.90;;;;;;4793836;29;20342;-94
2023/12/23 00:48:07;;;;;;;2.25;1.85;;;9.80;99.90;;;;;;4774847;29;20038;-94
2023/12/23 00:51:12;;;;;;;6.10;2.35;;;9.70;99.90;;;;;;4827708;29;20045;-93
2023/12/23 00:54:00;;;;;;;4.75;2.13;;;9.70;99.90;;;;;;4842876;29;20442;-94
2023/12/23 01:01:09;;;;;;;3.90;1.80;;;9.70;99.90;;;;;;4897770;29;20086;-93
2023/12/23 01:03:57;;;;;;;4.57;1.20;;;;;;;;;;4859246;29;20046;-93
2023/12/23 01:06:59;;;;;;;5.20;2.00;;;9.70;99.90;;;;;;4827510;29;20038;-93
2023/12/23 01:10:35;;;;;;;5.93;2.03;;;9.80;99.90;;;;;;4831492;29;20041;-96
2023/12/23 01:14:08;;;;;;;8.98;2.47;;;9.70;99.90;;;;;;4842517;29;20116;-94
2023/12/23 01:17:47;;;;;;;5.95;2.80;;;10.40;99.90;;;;;;4840700;29;20045;-93
2023/12/23 01:21:54;;;;;;;7.70;3.65;;;9.60;99.90;;;;;;4824568;29;20062;-93
2023/12/23 01:25:22;;;;;;;6.05;3.85;;;9.50;99.90;;;;;;4812421;29;20425;-94
2023/12/23 01:33:17;;;;;;;5.97;1.92;;;9.40;99.90;;;;;;4820390;29;20474;-94
2023/12/23 01:37:07;;;;;;;9.38;2.45;;;9.50;99.90;;;;;;4769362;29;20047;-94
2023/12/23 01:40:36;;;;;;;9.93;3.15;;;9.50;99.90;;;;;;4754506;30;20051;-94
2023/12/23 01:43:46;;;;;;;2.65;2.25;;;9.50;99.90;;;;;;4715316;30;20087;-92
2023/12/23 01:47:03;;;;;;;12.20;3.08;;;9.50;99.90;;;;;;4707943;30;20037;-94
2023/12/23 01:50:19;;;;;;;9.18;3.70;;;9.50;99.90;;;;;;4684463;30;20199;-93
2023/12/23 01:53:29;;;;;;;23.42;4.65;;;9.50;99.90;;;;;;4721208;30;20054;-93
2023/12/23 02:01:24;;;;;;;;;;;;;;;;;;;;;
2023/12/23 02:09:02;;;;;;;8.10;2.25;;;9.60;99.90;;;;;;4648032;30;20059;-93
2023/12/23 02:12:50;;;;;;;12.07;4.32;;;9.60;99.90;;;;;;4634228;30;20058;-94
2023/12/23 02:16:51;;;;;;;9.80;3.10;;;9.60;99.90;;;;;;4649321;30;20142;-93
2023/12/23 02:21:03;;;;;;;2.25;1.48;;;9.50;99.90;;;;;;4662386;30;20193;-94
2023/12/23 02:25:09;;;;;;;;;;;;;;;;;;;;;
2023/12/23 02:29:06;;;;;;;6.97;1.65;;;9.40;99.90;;;;;;4695089;30;20049;-93
2023/12/23 02:32:47;;;;;;;8.73;2.88;;;9.40;99.90;;;;;;4681970;30;20932;-94
2023/12/23 02:35:53;;;;;;;;;;;;;;;;;;;;;
2023/12/23 02:38:54;;;;;;;;;;;9.50;99.90;;;;;;4733803;30;20600;-93
2023/12/23 02:43:01;;;;;;;11.10;2.95;;;9.30;99.90;;;;;;4710354;30;20020;-94
2023/12/23 02:46:46;;;;;;;11.82;2.75;;;9.30;99.90;;;;;;4717788;30;20477;-94
2023/12/23 02:50:42;;;;;;;;;;;;;;;;;;;;;
2023/12/23 02:54:08;;;;;;;9.85;1.98;;;9.20;99.90;;;;;;4700145;30;20497;-92
2023/12/23 02:57:21;;;;;;;4.68;1.63;;;9.20;99.90;;;;;;4691488;30;20049;-93
2023/12/23 03:01:21;;;;;;;5.75;2.40;;;9.30;99.90;;;;;;4733653;30;20063;-94
2023/12/23 03:05:24;;;;;;;6.75;2.78;;;9.20;99.90;;;;;;4748053;30;20043;-94
2023/12/23 03:08:57;;;;;;;7.75;2.58;;;9.30;99.90;;;;;;4730449;30;20091;-93
2023/12/23 03:16:33;;;;;;;1.88;1.77;;;9.20;99.90;;;;;;4755254;30;20129;-94
2023/12/23 03:20:23;;;;;;;4.72;2.97;;;9.30;99.90;;;;;;4767112;30;20143;-93
2023/12/23 03:24:21;;;;;;;3.60;2.40;;;9.30;99.90;;;;;;4751666;30;20184;-93
2023/12/23 03:28:13;;;;;;;5.07;2.42;;;9.30;99.90;;;;;;4731436;30;20044;-94
2023/12/23 03:31:52;;;;;;;9.55;3.65;;;9.50;99.90;;;;;;4781445;29;20407;-94
2023/12/23 03:35:18;;;;;;;7.20;2.50;;;9.40;99.90;;;;;;4786206;29;20055;-93
2023/12/23 03:39:01;;;;;;;3.80;2.00;;;9.40;99.90;;;;;;4778179;29;20051;-92
2023/12/23 03:46:34;;;;;;;2.20;2.00;;;9.40;99.90;;;;;;4812281;29;20125;-92
2023/12/23 03:50:17;;;;;;;5.05;2.40;;;9.50;99.90;;;;;;4784003;29;20091;-94
2023/12/23 03:58:13;;;;;;;5.63;3.00;;;9.50;99.90;;;;;;4831390;29;20062;-93
2023/12/23 04:02:15;;;;;;;7.13;3.55;;;9.50;99.90;;;;;;4934313;29;20032;-94
2023/12/23 04:06:23;;;;;;;10.73;2.22;;;9.50;99.90;;;;;;4886558;29;20033;-95
2023/12/23 04:10:30;;;;;;;7.13;2.92;;;9.50;99.90;;;;;;4854415;29;20056;-93
2023/12/23 04:13:59;;;;;;;;;;;9.40;99.90;;;;;;4812379;29;20046;-94
2023/12/23 04:17:51;;;;;;;6.03;3.03;;;9.50;99.90;;;;;;4795640;29;20006;-92
2023/12/23 04:21:33;;;;;;;5.70;3.42;;;9.50;99.90;;;;;;4821066;29;20158;-94
2023/12/23 04:25:11;;;;;;;11.27;2.75;;;9.50;99.90;;;;;;4786013;30;20040;-94
2023/12/23 04:29:12;;;;;;;6.78;4.45;;;9.50;99.90;;;;;;4797900;29;20048;-92
2023/12/23 04:32:47;;;;;;;3.65;2.28;;;9.50;99.90;;;;;;4807820;29;20139;-95
2023/12/23 04:36:11;;;;;;;11.43;4.03;;;9.50;99.90;;;;;;4771801;30;20472;-93
2023/12/23 04:51:47;;;;;;;3.80;2.95;;;9.50;99.90;;;;;;4825339;29;20532;-93
2023/12/23 04:55:14;;;;;;;7.90;2.67;;;9.50;99.90;;;;;;4833506;29;20491;-93
2023/12/23 04:59:14;;;;;;;3.78;3.47;;;9.50;99.90;;;;;;4857195;29;20516;-93
2023/12/23 05:02:54;;;;;;;5.95;4.25;;;9.50;99.90;;;;;;4835764;29;20128;-94
2023/12/23 05:06:39;;;;;;;6.17;3.10;;;9.40;99.90;;;;;;4860302;29;20052;-94
2023/12/23 05:10:00;;;;;;;10.18;4.13;;;9.40;99.90;;;;;;4861019;29;20085;-93
2023/12/23 05:13:30;;;;;;;11.38;2.65;;;9.50;99.90;;;;;;4788415;30;20073;-93
2023/12/23 05:16:25;;;;;;;3.05;2.75;;;9.50;99.90;;;;;;4757016;30;20600;-95
2023/12/23 05:20:07;;;;;;;3.10;2.30;;;9.40;99.90;;;;;;4754852;30;20055;-94
2023/12/23 05:27:27;;;;;;;4.72;2.63;;;9.60;99.90;;;;;;4788014;29;20042;-94
2023/12/23 05:30:39;;;;;;;4.32;2.83;;;9.50;99.90;;;;;;4768230;30;20494;-94
2023/12/23 05:34:36;;;;;;;6.63;3.92;;;9.50;99.90;;;;;;4790551;29;20039;-94
2023/12/23 05:38:25;;;;;;;6.72;4.65;;;9.50;99.90;;;;;;4743637;30;20069;-94
2023/12/23 05:42:23;;;;;;;6.82;2.28;;;9.60;99.90;;;;;;4752127;30;20044;-93
2023/12/23 05:53:30;;;;;;;6.32;3.80;;;9.60;99.90;;;;;;4751982;30;20044;-95
2023/12/23 05:56:00;;;;;;;4.65;2.20;;;9.60;99.90;;;;;;4717285;30;20156;-94
2023/12/23 05:58:32;;;;;;;8.27;2.20;;;;;;;;;;4684865;30;20072;-94
2023/12/23 06:01:30;;;;;;;8.32;4.00;;;9.60;99.90;;;;;;4759323;30;20047;-94
2023/12/23 06:04:03;;;;;;;2.50;1.98;;;9.60;99.90;;;;;;4797964;29;20042;-94
2023/12/23 06:06:51;;;;;;;3.90;3.13;;;9.60;99.90;;;;;;4819609;29;20246;-94
2023/12/23 06:10:01;;;;;;;7.97;2.20;;;9.60;99.90;;;;;;4859482;29;20045;-95
2023/12/23 06:13:13;;;;;;;4.65;2.17;;;10.00;99.90;;;;;;4881335;29;20400;-94
2023/12/23 06:15:42;;;;;;;6.10;3.35;;;;;;;;;;4843240;29;20128;-93
2023/12/23 06:18:15;;;;;;;14.57;3.05;;;9.70;99.90;;;;;;4845853;29;20128;-92
2023/12/23 06:20:55;;;;;;;7.20;1.83;;;9.80;99.90;;;;;;4915824;29;20096;-93
2023/12/23 06:23:32;;;;;;;5.55;2.25;;;9.90;99.90;;;;;;4932974;29;20044;-94
2023/12/23 06:25:59;;;;;;;2.35;2.17;;;9.80;99.90;;;;;;4940040;28;20069;-93
2023/12/23 06:28:40;;;;;;;8.93;3.63;;;9.80;99.90;;;;;;4934491;29;20531;-94
2023/12/23 06:31:07;;;;;;;7.03;1.88;;;;;;;;;;4950136;28;20042;-94
2023/12/23 06:33:37;;;;;;;2.85;2.13;;;9.80;99.90;;;;;;4956084;28;20468;-92
2023/12/23 06:36:09;;;;;;;2.90;2.40;;;;;;;;;;4991081;28;20027;-94
2023/12/23 06:38:36;;;;;;;2.53;2.20;;;9.80;99.90;;;;;;4990887;28;20042;-93
2023/12/23 06:41:08;;;;;;;4.13;2.97;;;;;;;;;;4975823;28;20026;-94
2023/12/23 06:43:36;;;;;;;4.10;2.38;;;9.80;99.90;;;;;;4991828;28;20037;-92
2023/12/23 06:46:10;;;;;;;12.45;3.10;;;9.80;99.90;;;;;;4971985;28;20056;-93
2023/12/23 06:49:28;;;;;;;;;;;;;;;;;;;;;
2023/12/23 06:52:39;;;;;;;8.00;2.50;;;9.80;99.90;;;;;;4953064;28;20035;-93
2023/12/23 06:56:20;;;;;;;5.75;2.92;;;10.40;99.90;;;;;;4920031;29;20032;-93
2023/12/23 06:59:49;;;;;;;5.68;3.40;;;9.70;99.90;;;;;;4924817;29;20035;-95
2023/12/23 07:03:46;;;;;;;11.23;3.85;;;9.70;99.90;;;;;;4953682;29;20167;-95
2023/12/23 07:07:41;;;;;;;;;;;;;;;;;;;;;
2023/12/23 07:10:44;;;;;;;7.38;3.72;;;9.80;99.90;;;;;;4952989;29;20047;-95
2023/12/23 07:17:13;;;;;;;11.10;2.38;;;9.80;99.90;;;;;;4937132;29;20543;-94
2023/12/23 07:20:00;;;;;;;5.72;1.83;;;9.90;99.90;;;;;;4934693;29;20550;-94
2023/12/23 07:22:28;;;;;;;5.43;3.55;;;;;;;;;;4945902;28;20051;-93
2023/12/23 07:25:32;;;;;;;5.88;2.20;;;9.70;99.90;;;;;;4991698;28;20746;-93
2023/12/23 07:28:35;;;;;;;17.15;6.03;;;9.90;99.90;;;;;;4940366;29;20517;-94
2023/12/23 07:31:59;;;;;;;3.78;2.17;;;9.90;99.90;;;;;;4920966;29;20062;-94
2023/12/23 07:34:56;;;;;;;9.77;3.38;;;9.90;99.90;;;;;;4923582;29;20054;-93
2023/12/23 07:38:16;;;;;;;5.55;3.65;;;9.90;99.90;;;;;;4906162;29;20044;-94
2023/12/23 07:41:49;;;;;;;4.80;3.88;;;8.60;99.90;;;;;;4899767;29;20049;-96
2023/12/23 07:44:36;;;;;;;3.88;2.78;;;10.00;99.90;;;;;;4884878;29;20097;-93
2023/12/23 07:48:50;;;;;;;7.07;3.45;;;10.00;99.90;;;;;;4896965;29;20630;-95
2023/12/23 07:52:35;;;;;;;6.82;3.05;;;10.00;99.90;;;;;;4887386;29;20036;-94
2023/12/23 07:56:01;;;;;;;5.85;3.10;;;10.00;99.90;;;;;;4852801;29;20380;-95
2023/12/23 07:59:04;;;;;;;7.40;3.00;;;10.00;99.90;;;;;;4866659;29;20077;-93
2023/12/23 08:02:04;;;;;;;8.18;3.55;;;9.60;99.90;;;;;;4879641;29;20048;-93
2023/12/23 08:08:49;;;;;;;4.43;2.95;;;10.00;99.90;;;;;;4901620;29;20043;-93
2023/12/23 08:11:56;;;;;;;5.50;3.25;;;10.00;99.90;;;;;;4893243;29;20139;-93
2023/12/23 08:15:25;;;;;;;5.90;2.17;;;10.00;99.90;;;;;;4879326;29;20040;-95
2023/12/23 08:18:42;;;;;;;1.95;1.80;;;10.00;99.90;;;;;;4903912;29;20040;-93
2023/12/23 08:22:09;;;;;;;5.85;2.88;;;10.00;99.90;;;;;;4847801;29;20049;-93
2023/12/23 08:25:13;;;;;;;6.88;2.63;;;;;;;;;;4874916;29;20174;-95
2023/12/23 08:30:16;;;;;;;11.60;6.45;;;10.20;99.90;;;;;;5115807;27;1412506;-91
2023/12/23 08:32:43;;;;;;;18.63;8.02;;;10.20;99.90;;;;;;5122344;28;20316;-91
2023/12/23 08:35:10;;;;;;;11.95;9.10;;;10.20;99.90;;;;;;5119945;28;20286;-91
2023/12/23 08:37:36;;;;;;;18.23;11.18;;;;;;;;;;5101381;28;20027;-89
2023/12/23 08:40:02;;;;;;;11.50;2.53;;;10.10;99.90;;;;;;5121519;28;20023;-90
2023/12/23 08:42:28;;;;;;;7.00;3.38;;;10.20;99.90;;;;;;5122015;28;20323;-91
2023/12/23 08:44:53;;;;;;;6.80;2.47;;;10.10;99.90;;;;;;5121493;28;20300;-90
2023/12/23 08:47:19;;;;;;;6.43;3.00;;;10.10;99.90;;;;;;5117072;28;20325;-91
2023/12/23 08:49:45;;;;;;;5.97;1.95;;;10.10;99.90;;;;;;5112396;28;20295;-90
2023/12/23 08:52:11;;;;;;;7.30;2.53;;;10.10;99.90;;;;;;5117992;28;20110;-90
2023/12/23 08:54:37;;;;;;;6.47;2.15;;;10.20;99.90;;;;;;5121772;28;20353;-91
2023/12/23 08:57:03;;;;;;;7.55;2.55;;;10.10;99.90;;;;;;5103906;28;20103;-90
2023/12/23 08:59:29;;;;;;;7.20;3.90;;;10.30;99.90;;;;;;5117741;28;20047;-89
2023/12/23 09:01:55;;;;;;;1.58;1.48;;;;;;;;;;5138082;28;20338;-89
2023/12/23 09:04:21;;;;;;;8.38;4.30;;;10.30;99.90;;;;;;5121576;28;20031;-90
2023/12/23 09:06:47;;;;;;;8.73;3.13;;;10.00;99.90;;;;;;5117752;28;20016;-90
2023/12/23 09:09:13;;;;;;;7.65;2.75;;;10.10;99.90;;;;;;5114953;28;20032;-89
2023/12/23 09:11:43;;;;;;;19.77;3.05;;;9.80;99.90;;;;;;5120849;28;20020;-90
2023/12/23 09:14:10;;;;;;;4.97;3.13;;;9.90;99.90;;;;;;5108503;28;20023;-91
2023/12/23 09:16:36;;;;;;;5.80;2.75;;;9.80;99.90;;;;;;5114886;28;20018;-87
2023/12/23 09:19:03;;;;;;;7.38;2.42;;;9.90;99.90;;;;;;5118342;28;20255;-90
2023/12/23 09:21:31;;;;;;;4.15;2.58;;;9.70;99.90;;;;;;5129837;28;20265;-90
2023/12/23 09:23:57;;;;;;;9.75;2.58;;;9.60;99.90;;;;;;5113952;28;20004;-90
2023/12/23 09:26:26;;;;;;;7.68;4.22;;;9.70;99.90;;;;;;5117308;28;20015;-88
2023/12/23 09:28:52;;;;;;;5.38;4.25;;;9.70;99.90;;;;;;5119732;28;20217;-90
2023/12/23 09:31:18;;;;;;;14.85;13.10;;;9.50;99.90;;;;;;5103162;28;20072;-89
2023/12/23 09:33:44;;;;;;;4.45;3.95;;;9.50;99.90;;;;;;5122120;28;20019;-90
2023/12/23 09:36:11;;;;;;;7.50;5.95;;;9.60;99.90;;;;;;5110620;28;20053;-89
2023/12/23 09:38:37;;;;;;;5.05;4.38;;;9.50;99.90;;;;;;5101477;28;20012;-89
2023/12/23 09:41:03;;;;;;;10.27;4.07;;;9.60;99.90;;;;;;5106971;28;20016;-90
2023/12/23 09:43:29;;;;;;;5.25;4.72;;;9.40;99.90;;;;;;5099768;28;20304;-89
2023/12/23 09:45:57;;;;;;;16.00;6.43;;;9.40;99.90;;;;;;5095978;28;20271;-90
2023/12/23 09:48:24;;;;;;;4.63;4.22;;;;;;;;;;5087533;28;20074;-92
2023/12/23 09:50:50;;;;;;;7.93;3.88;;;9.40;99.90;;;;;;5104834;28;20024;-91
2023/12/23 09:53:20;;;;;;;16.00;6.20;;;9.40;99.90;;;;;;5087189;28;20087;-90
2023/12/23 09:55:47;;;;;;;6.57;4.32;;;9.40;99.90;;;;;;5103740;28;20016;-89
2023/12/23 09:58:13;;;;;;;7.40;4.05;;;9.40;99.90;;;;;;5123176;28;20087;-91
2023/12/23 10:00:42;;;;;;;8.52;5.72;;;9.50;99.90;;;;;;5104295;28;20024;-90
2023/12/23 10:03:08;;;;;;;3.90;3.17;;;;;;;;;;5106024;28;20024;-88
2023/12/23 10:05:42;;;;;;;9.43;4.90;;;9.70;99.90;;;;;;5089995;28;20039;-92
2023/12/23 10:08:07;;;;;;;3.35;2.60;;;9.90;99.90;;;;;;5102734;28;20024;-92
2023/12/23 10:10:33;;;;;;;4.97;3.08;;;9.80;99.90;;;;;;5105395;28;20099;-91
2023/12/23 10:13:00;;;;;;;21.17;4.45;;;;;;;;;;5090459;28;20024;-91
2023/12/23 10:15:26;;;;;;;5.43;2.88;;;;;;;;;;5099365;28;20091;-91
2023/12/23 10:17:52;;;;;;;4.45;3.95;;;10.20;99.90;;;;;;5100953;28;20027;-92
2023/12/23 10:20:19;;;;;;;4.13;2.38;;;10.20;99.90;;;;;;5092021;28;20053;-91
2023/12/23 10:22:47;;;;;;;4.35;1.90;;;10.20;99.90;;;;;;5106201;28;20313;-91
2023/12/23 10:25:14;;;;;;;9.88;2.78;;;;;;;;;;5097589;28;20022;-92
2023/12/23 10:27:42;;;;;;;4.18;2.38;;;10.30;99.90;;;;;;5091463;28;20577;-92
2023/12/23 10:30:16;;;;;;;8.32;3.35;;;10.40;99.90;;;;;;5088398;28;20364;-91
2023/12/23 10:32:49;;;;;;;2.83;1.67;;;10.40;99.90;;;;;;5109014;28;20247;-92
2023/12/23 10:35:18;;;;;;;6.88;3.05;;;10.40;99.90;;;;;;5084090;28;20016;-91
2023/12/23 10:37:44;;;;;;;2.40;1.77;;;;;;;;;;5097881;28;20011;-91
2023/12/23 10:40:26;;;;;;;6.40;2.97;;;10.50;99.90;;;;;;5104753;28;20213;-92
2023/12/23 10:42:54;;;;;;;4.30;1.77;;;10.30;99.90;;;;;;5104825;28;20031;-90
2023/12/23 10:45:21;;;;;;;4.80;1.98;;;;;;;;;;5102997;28;20307;-90
2023/12/23 10:47:49;;;;;;;2.63;1.55;;;10.60;99.90;;;;;;5122315;28;20020;-91
2023/12/23 10:50:16;;;;;;;5.00;1.25;;;;;;;;;;5105219;28;20110;-91
2023/12/23 10:52:42;;;;;;;6.70;1.83;;;;;;;;;;5105636;28;20041;-91
2023/12/23 10:55:09;;;;;;;2.33;1.83;;;10.50;99.90;;;;;;5098851;28;20320;-90
2023/12/23 10:57:36;;;;;;;1.88;1.77;;;10.60;99.90;;;;;;5089222;28;20026;-91
2023/12/23 11:00:04;;;;;;;4.22;1.85;;;10.70;99.90;;;;;;5100188;28;20217;-90
2023/12/23 11:02:30;;;;;;;3.45;1.65;;;10.70;99.90;;;;;;5106061;28;20098;-90
2023/12/23 11:04:58;;;;;;;3.53;1.70;;;10.70;99.90;;;;;;5102304;28;20016;-92
2023/12/23 11:07:38;;;;;;;5.55;2.30;;;10.80;99.90;;;;;;5084560;28;20027;-92
2023/12/23 11:10:05;;;;;;;3.78;2.72;;;10.80;99.90;;;;;;5104041;28;20036;-92
2023/12/23 11:12:31;;;;;;;3.45;1.48;;;10.80;99.90;;;;;;5106236;28;20007;-90
2023/12/23 11:15:00;;;;;;;3.72;1.63;;;10.80;99.90;;;;;;5105831;28;20312;-91
2023/12/23 11:17:28;;;;;;;3.70;2.67;;;10.60;99.90;;;;;;5117299;28;20035;-92
2023/12/23 11:20:01;;;;;;;12.90;2.83;;;10.80;99.90;;;;;;5085525;28;20016;-90
2023/12/23 11:22:45;;;;;;;3.00;2.15;;;10.90;99.90;;;;;;5090240;28;20024;-92
2023/12/23 11:25:41;;;;;;;4.68;1.42;;;11.10;99.90;;;;;;5094972;28;20020;-90
2023/12/23 11:28:12;;;;;;;4.60;1.20;;;11.00;99.90;;;;;;5095100;28;20051;-91
2023/12/23 11:31:05;;;;;;;3.80;1.65;;;11.00;99.90;;;;;;5108330;28;20019;-90
2023/12/23 11:33:34;;;;;;;1.50;1.13;;;10.90;99.90;;;;;;5103796;28;20550;-93
2023/12/23 11:36:02;;;;;;;8.95;1.55;;;10.90;99.90;;;;;;5084125;28;20352;-90
2023/12/23 11:38:50;;;;;;;4.70;1.35;;;11.00;99.90;;;;;;5097190;28;20012;-90
2023/12/23 11:41:16;;;;;;;4.70;1.30;;;11.00;99.90;;;;;;5088080;28;20042;-90
2023/12/23 11:43:47;;;;;;;2.97;1.45;;;11.00;99.90;;;;;;5092658;28;20011;-90
2023/12/23 11:46:12;;;;;;;;;;;11.00;99.90;;;;;;5100844;28;20039;-88
2023/12/23 11:48:39;;;;;;;4.25;1.33;;;;;;;;;;5085688;28;19908;-89
2023/12/23 11:51:08;;;;;;;4.13;1.50;;;;;;;;;;5084867;28;20023;-91
2023/12/23 11:53:34;;;;;;;6.25;2.50;;;11.20;99.90;;;;;;5085892;28;20437;-88
2023/12/23 11:56:01;;;;;;;6.85;1.17;;;11.20;99.90;;;;;;5093281;28;20062;-90
2023/12/23 11:58:27;;;;;;;4.07;1.08;;;11.30;99.90;;;;;;5106470;28;20023;-91
2023/12/23 12:00:56;;;;;;;4.50;1.02;;;11.20;99.90;;;;;;5089195;28;20304;-90
2023/12/23 12:03:25;;;;;;;0.75;0.75;;;11.30;99.90;;;;;;5102471;28;20035;-91
2023/12/23 12:05:59;;;;;;;3.35;1.83;;;11.20;99.90;;;;;;5097726;28;20034;-90
2023/12/23 12:08:25;;;;;;;2.55;0.82;;;11.20;99.90;;;;;;5087523;28;20063;-90
2023/12/23 12:10:55;;;;;;;1.23;0.82;;;11.20;99.90;;;;;;5083412;28;20034;-91
2023/12/23 12:13:21;;;;;;;2.63;1.00;;;;;;;;;;5115401;28;20053;-90
2023/12/23 12:15:47;;;;;;;2.75;0.93;;;11.20;99.90;;;;;;5097345;28;20286;-90
2023/12/23 12:18:14;;;;;;;1.77;1.02;;;11.30;99.90;;;;;;5104801;28;20296;-91
2023/12/23 12:20:40;;;;;;;3.38;2.20;;;11.30;99.90;;;;;;5068820;28;20385;-90
2023/12/23 12:23:06;;;;;;;4.47;1.27;;;11.30;99.90;;;;;;5101608;28;20032;-92
2023/12/23 12:25:32;;;;;;;1.13;0.90;;;;;;;;;;5100116;28;20020;-91
2023/12/23 12:27:58;;;;;;;2.50;1.40;;;11.20;99.90;;;;;;5084253;28;20046;-90
2023/12/23 12:30:24;;;;;;;4.05;1.67;;;11.20;99.90;;;;;;5098920;28;20384;-91
2023/12/23 12:32:51;;;;;;;3.17;1.17;;;11.20;99.90;;;;;;5100867;28;20216;-91
2023/12/23 12:35:17;;;;;;;1.80;1.67;;;11.20;99.90;;;;;;5094180;28;20023;-91
2023/12/23 12:37:43;;;;;;;5.45;3.67;;;11.20;99.90;;;;;;5084123;28;20012;-90
2023/12/23 12:40:11;;;;;;;4.47;3.13;;;11.10;99.90;;;;;;5083437;28;20031;-91
2023/12/23 12:42:38;;;;;;;3.70;1.92;;;11.10;99.90;;;;;;5104246;28;20324;-90
2023/12/23 12:45:05;;;;;;;2.22;2.13;;;11.10;99.90;;;;;;5101118;28;20024;-90
2023/12/23 12:47:31;;;;;;;2.83;1.73;;;11.00;99.90;;;;;;5091493;28;20020;-91
2023/12/23 12:50:05;;;;;;;5.10;3.10;;;11.00;99.90;;;;;;5094432;28;20028;-90
2023/12/23 12:52:32;;;;;;;7.65;4.38;;;11.00;99.90;;;;;;5094665;28;20015;-89
2023/12/23 12:55:00;;;;;;;3.88;2.53;;;10.90;99.90;;;;;;5100005;28;20248;-91
2023/12/23 12:57:28;;;;;;;8.95;4.72;;;10.90;99.90;;;;;;5111621;28;20031;-90
2023/12/23 12:59:54;;;;;;;5.63;1.90;;;10.90;99.90;;;;;;5092764;28;20028;-90
2023/12/23 13:02:21;;;;;;;13.52;6.63;;;10.80;99.90;;;;;;5092050;28;20026;-92
2023/12/23 13:04:47;;;;;;;10.15;4.57;;;10.80;99.90;;;;;;5088472;28;20021;-91
2023/12/23 13:07:13;;;;;;;5.82;3.67;;;10.80;99.90;;;;;;5094130;28;20045;-91
2023/12/23 13:09:40;;;;;;;9.48;4.65;;;10.70;99.90;;;;;;5094569;28;20069;-90
2023/12/23 13:12:08;;;;;;;21.33;17.92;;;10.80;99.90;;;;;;5100306;28;20051;-89
2023/12/23 13:14:35;;;;;;;7.82;3.15;;;;;;;;;;5093217;28;20360;-91
2023/12/23 13:17:01;;;;;;;6.88;5.53;;;10.80;99.90;;;;;;5094632;28;20092;-90
2023/12/23 13:19:27;;;;;;;4.47;4.00;;;10.80;99.90;;;;;;5075093;28;20228;-89
2023/12/23 13:21:52;;;;;;;9.55;6.53;;;10.80;99.90;;;;;;5103500;28;20065;-91
2023/12/23 13:24:18;;;;;;;8.38;2.38;;;10.80;99.90;;;;;;5106901;28;20403;-91
2023/12/23 13:26:45;;;;;;;3.15;2.80;;;10.80;99.90;;;;;;5099322;28;20026;-91
2023/12/23 13:29:11;;;;;;;3.08;1.70;;;10.80;99.90;;;;;;5068326;28;20039;-91
2023/12/23 13:31:37;;;;;;;7.28;2.72;;;10.70;99.90;;;;;;5089269;28;20077;-90
2023/12/23 13:34:03;;;;;;;13.82;9.73;;;10.70;99.90;;;;;;5087322;28;20035;-91
2023/12/23 13:36:29;;;;;;;6.88;6.20;;;10.70;99.90;;;;;;5072374;28;20035;-92
2023/12/23 13:38:55;;;;;;;15.43;10.80;;;10.70;99.90;;;;;;5105661;28;20087;-91
2023/12/23 13:41:28;;;;;;;7.25;2.78;;;10.70;99.90;;;;;;5108069;28;20035;-90
2023/12/23 13:43:54;;;;;;;2.17;1.67;;;10.70;99.90;;;;;;5107586;28;20016;-91
2023/12/23 13:46:20;;;;;;;1.15;1.05;;;10.70;99.90;;;;;;5084256;28;20020;-92
2023/12/23 13:48:46;;;;;;;5.18;3.15;;;10.70;99.90;;;;;;5104624;28;20063;-91
2023/12/23 13:51:12;;;;;;;1.65;1.55;;;10.60;99.90;;;;;;5087362;28;20028;-91
2023/12/23 13:53:38;;;;;;;3.63;2.53;;;10.60;99.90;;;;;;5102706;28;20023;-91
2023/12/23 13:56:08;;;;;;;1.70;1.60;;;10.70;99.90;;;;;;5098749;28;20043;-92
2023/12/23 13:58:37;;;;;;;3.33;1.55;;;10.70;99.90;;;;;;5066345;28;20047;-91
2023/12/23 14:01:03;;;;;;;6.35;1.10;;;10.60;99.90;;;;;;5086628;28;20024;-91
2023/12/23 14:03:29;;;;;;;2.88;1.50;;;10.70;99.90;;;;;;5103614;28;20019;-90
2023/12/23 14:06:00;;;;;;;4.70;1.60;;;10.70;99.90;;;;;;5097601;28;20066;-90
2023/12/23 14:08:26;;;;;;;3.33;1.80;;;10.70;99.90;;;;;;5078565;28;20281;-90
2023/12/23 14:10:52;;;;;;;1.38;1.27;;;10.70;99.90;;;;;;5092359;28;20024;-91
2023/12/23 14:13:18;;;;;;;5.00;2.47;;;10.70;99.90;;;;;;5104337;28;20023;-90
2023/12/23 14:15:44;;;;;;;2.35;1.88;;;10.70;99.90;;;;;;5100766;28;20090;-91
2023/12/23 14:18:10;;;;;;;1.45;1.33;;;10.60;99.90;;;;;;5078764;28;20024;-91
2023/12/23 14:20:36;;;;;;;4.05;2.30;;;10.60;99.90;;;;;;5086080;28;20050;-90
2023/12/23 14:23:06;;;;;;;4.13;2.63;;;;;;;;;;5103977;28;20024;-91
2023/12/23 14:25:33;;;;;;;17.95;8.68;;;10.60;99.90;;;;;;5113045;28;20114;-92
2023/12/23 14:27:59;;;;;;;14.30;9.50;;;10.40;99.90;;;;;;5106012;28;20024;-90
2023/12/23 14:30:26;;;;;;;3.92;3.47;;;;;;;;;;5085342;28;20036;-89
2023/12/23 14:32:51;;;;;;;2.97;2.25;;;10.50;99.90;;;;;;5111008;28;20114;-91
2023/12/23 14:35:17;;;;;;;3.75;1.58;;;10.50;99.90;;;;;;5073141;28;20024;-91
2023/12/23 14:37:43;;;;;;;1.05;1.05;;;10.50;99.90;;;;;;5094181;28;20087;-90
2023/12/23 14:40:09;;;;;;;3.45;1.40;;;10.50;99.90;;;;;;5081568;28;20063;-92
2023/12/23 14:42:35;;;;;;;1.58;1.27;;;10.70;99.90;;;;;;5103353;28;20027;-90
2023/12/23 14:45:01;;;;;;;5.18;2.03;;;10.50;99.90;;;;;;5068478;28;20376;-91
2023/12/23 14:47:27;;;;;;;2.50;1.23;;;10.50;99.90;;;;;;5102441;28;20035;-89
2023/12/23 14:49:53;;;;;;;3.67;2.55;;;10.50;99.90;;;;;;5084019;28;20063;-92
2023/12/23 14:52:19;;;;;;;4.30;1.83;;;10.50;99.90;;;;;;5093669;28;20201;-90
2023/12/23 14:54:45;;;;;;;1.88;1.35;;;10.50;99.90;;;;;;5101733;28;20023;-90
2023/12/23 14:57:11;;;;;;;4.13;1.95;;;10.50;99.90;;;;;;5087483;28;20042;-91
2023/12/23 14:59:37;;;;;;;2.00;1.58;;;10.40;99.90;;;;;;5105301;28;20321;-92
2023/12/23 15:02:03;;;;;;;4.10;2.33;;;10.50;99.90;;;;;;5088631;28;20031;-90
2023/12/23 15:04:29;;;;;;;5.47;3.00;;;;;;;;;;5102957;28;20020;-91
2023/12/23 15:06:56;;;;;;;3.03;1.77;;;;;;;;;;5099485;28;20016;-91
2023/12/23 15:09:22;;;;;;;4.82;1.67;;;10.80;99.90;;;;;;5122721;28;20055;-91
2023/12/23 15:11:48;;;;;;;4.47;1.98;;;;;;;;;;5101880;28;20052;-90
2023/12/23 15:14:14;;;;;;;2.78;2.00;;;10.50;99.90;;;;;;5087360;28;20024;-90
2023/12/23 15:16:40;;;;;;;1.70;1.55;;;;;;;;;;5099752;28;20023;-91
2023/12/23 15:19:06;;;;;;;1.42;0.95;;;10.50;99.90;;;;;;5069098;28;20055;-91
2023/12/23 15:21:32;;;;;;;2.88;2.05;;;10.50;99.90;;;;;;5103499;28;20034;-91
2023/12/23 15:23:58;;;;;;;6.95;1.55;;;10.50;99.90;;;;;;5102207;28;20024;-90
2023/12/23 15:26:27;;;;;;;3.13;1.27;;;;;;;;;;5097401;28;20107;-91
2023/12/23 15:28:53;;;;;;;4.68;3.92;;;10.50;99.90;;;;;;5097519;28;20384;-90
2023/12/23 15:31:18;;;;;;;8.93;1.92;;;10.50;99.90;;;;;;5092362;28;20047;-90
2023/12/23 15:33:44;;;;;;;2.90;1.55;;;10.50;99.90;;;;;;5104450;28;20024;-90
2023/12/23 15:36:12;;;;;;;8.23;1.60;;;10.50;99.90;;;;;;5101743;28;20020;-89
2023/12/23 15:38:38;;;;;;;2.95;1.63;;;10.40;99.90;;;;;;5088307;28;20048;-92
2023/12/23 15:41:04;;;;;;;2.15;1.80;;;10.40;99.90;;;;;;5092533;28;20028;-90
2023/12/23 15:43:30;;;;;;;6.75;2.35;;;;;;;;;;5084599;28;20112;-90
2023/12/23 15:45:56;;;;;;;2.20;1.38;;;10.30;99.90;;;;;;5101194;28;20239;-90
2023/12/23 15:48:22;;;;;;;4.40;2.22;;;;;;;;;;5103195;28;20052;-90
2023/12/23 15:50:48;;;;;;;1.38;1.27;;;10.30;99.90;;;;;;5099110;28;20316;-90
2023/12/23 15:53:15;;;;;;;3.15;1.02;;;10.30;99.90;;;;;;5087923;28;20024;-91
2023/12/23 15:55:42;;;;;;;3.17;1.55;;;10.30;99.90;;;;;;5082148;28;20329;-91
2023/12/23 15:58:08;;;;;;;1.40;1.30;;;10.40;99.90;;;;;;5080243;28;20142;-90
2023/12/23 16:00:33;;;;;;;4.88;1.77;;;10.40;99.90;;;;;;5108593;28;20031;-89
2023/12/23 16:03:00;;;;;;;27.08;15.77;;;10.40;99.90;;;;;;5102829;28;20023;-89
2023/12/23 16:05:25;;;;;;;9.27;4.80;;;10.40;99.90;;;;;;5115941;28;20024;-89
2023/12/23 16:07:51;;;;;;;22.00;9.40;;;10.40;99.90;;;;;;5098520;28;20020;-89
2023/12/23 16:10:17;;;;;;;12.73;6.25;;;10.50;99.90;;;;;;5084603;28;20074;-89
2023/12/23 16:12:43;;;;;;;41.80;17.15;;;;;;;;;;5093935;28;20020;-91
2023/12/23 16:15:09;;;;;;;32.15;16.17;;;10.60;99.90;;;;;;5102779;28;20012;-89